sensor_id;sensor_type;location;lat;lon;timestamp;P1;durP1;ratioP1;P2;durP2;ratioP2
66585;SDS011;53444;45.822;16.092;2022-12-13T00:00:27;20.40;;;9.38;;
66585;SDS011;53444;45.822;16.092;2022-12-13T00:02:54;16.38;;;8.45;;
66585;SDS011;53444;45.822;16.092;2022-12-13T00:05:21;18.40;;;7.73;;
66585;SDS011;53444;45.822;16.092;2022-12-13T00:07:47;17.38;;;7.85;;
66585;SDS011;53444;45.822;16.092;2022-12-13T00:10:14;22.45;;;9.43;;
66585;SDS011;53444;45.822;16.092;2022-12-13T00:12:42;15.43;;;8.50;;
66585;SDS011;53444;45.822;16.092;2022-12-13T00:15:09;21.02;;;8.55;;
66585;SDS011;53444;45.822;16.092;2022-12-13T00:17:36;17.07;;;7.63;;
66585;SDS011;53444;45.822;16.092;2022-12-13T00:20:03;19.95;;;8.82;;
66585;SDS011;53444;45.822;16.092;2022-12-13T00:22:30;20.15;;;8.60;;
66585;SDS011;53444;45.822;16.092;2022-12-13T00:24:57;11.90;;;6.20;;
66585;SDS011;53444;45.822;16.092;2022-12-13T00:27:24;19.50;;;8.25;;
66585;SDS011;53444;45.822;16.092;2022-12-13T00:29:54;12.63;;;6.33;;
66585;SDS011;53444;45.822;16.092;2022-12-13T00:32:21;11.20;;;6.35;;
66585;SDS011;53444;45.822;16.092;2022-12-13T00:34:47;11.32;;;5.80;;
66585;SDS011;53444;45.822;16.092;2022-12-13T00:37:14;12.93;;;5.72;;
66585;SDS011;53444;45.822;16.092;2022-12-13T00:39:41;10.75;;;6.32;;
66585;SDS011;53444;45.822;16.092;2022-12-13T00:42:07;9.00;;;4.67;;
66585;SDS011;53444;45.822;16.092;2022-12-13T00:44:34;15.88;;;6.93;;
66585;SDS011;53444;45.822;16.092;2022-12-13T00:47:02;15.45;;;6.93;;
66585;SDS011;53444;45.822;16.092;2022-12-13T00:49:28;21.10;;;7.22;;
66585;SDS011;53444;45.822;16.092;2022-12-13T00:51:55;12.52;;;6.95;;
66585;SDS011;53444;45.822;16.092;2022-12-13T00:54:22;11.27;;;5.53;;
66585;SDS011;53444;45.822;16.092;2022-12-13T00:56:48;11.20;;;4.45;;
66585;SDS011;53444;45.822;16.092;2022-12-13T00:59:16;13.57;;;6.28;;
66585;SDS011;53444;45.822;16.092;2022-12-13T01:01:43;11.57;;;5.60;;
66585;SDS011;53444;45.822;16.092;2022-12-13T01:04:11;9.73;;;5.65;;
66585;SDS011;53444;45.822;16.092;2022-12-13T01:06:39;10.73;;;4.97;;
66585;SDS011;53444;45.822;16.092;2022-12-13T01:09:09;12.38;;;5.30;;
66585;SDS011;53444;45.822;16.092;2022-12-13T01:11:42;13.85;;;5.70;;
66585;SDS011;53444;45.822;16.092;2022-12-13T01:14:09;11.40;;;6.30;;
66585;SDS011;53444;45.822;16.092;2022-12-13T01:16:36;11.15;;;6.35;;
66585;SDS011;53444;45.822;16.092;2022-12-13T01:19:03;13.23;;;5.00;;
66585;SDS011;53444;45.822;16.092;2022-12-13T01:21:31;12.68;;;5.88;;
66585;SDS011;53444;45.822;16.092;2022-12-13T01:24:01;12.35;;;6.07;;
66585;SDS011;53444;45.822;16.092;2022-12-13T01:26:28;13.40;;;5.63;;
66585;SDS011;53444;45.822;16.092;2022-12-13T01:28:55;9.30;;;4.75;;
66585;SDS011;53444;45.822;16.092;2022-12-13T01:31:22;9.83;;;5.03;;
66585;SDS011;53444;45.822;16.092;2022-12-13T01:33:49;12.40;;;5.47;;
66585;SDS011;53444;45.822;16.092;2022-12-13T01:36:16;13.57;;;6.63;;
66585;SDS011;53444;45.822;16.092;2022-12-13T01:38:46;11.02;;;5.95;;
66585;SDS011;53444;45.822;16.092;2022-12-13T01:41:13;9.70;;;6.05;;
66585;SDS011;53444;45.822;16.092;2022-12-13T01:46:29;8.30;;;5.07;;
66585;SDS011;53444;45.822;16.092;2022-12-13T01:48:59;16.25;;;6.45;;
66585;SDS011;53444;45.822;16.092;2022-12-13T01:51:30;18.13;;;7.78;;
66585;SDS011;53444;45.822;16.092;2022-12-13T01:54:03;12.75;;;6.65;;
66585;SDS011;53444;45.822;16.092;2022-12-13T01:56:34;10.40;;;6.60;;
66585;SDS011;53444;45.822;16.092;2022-12-13T01:59:03;14.98;;;6.72;;
66585;SDS011;53444;45.822;16.092;2022-12-13T02:01:33;14.45;;;8.32;;
66585;SDS011;53444;45.822;16.092;2022-12-13T02:04:00;12.38;;;7.13;;
66585;SDS011;53444;45.822;16.092;2022-12-13T02:06:28;18.17;;;7.82;;
66585;SDS011;53444;45.822;16.092;2022-12-13T02:08:59;15.03;;;8.50;;
66585;SDS011;53444;45.822;16.092;2022-12-13T02:11:27;20.88;;;9.10;;
66585;SDS011;53444;45.822;16.092;2022-12-13T02:13:54;11.15;;;7.00;;
66585;SDS011;53444;45.822;16.092;2022-12-13T02:16:25;15.82;;;8.70;;
66585;SDS011;53444;45.822;16.092;2022-12-13T02:19:18;17.80;;;7.60;;
66585;SDS011;53444;45.822;16.092;2022-12-13T02:22:08;16.43;;;7.00;;
66585;SDS011;53444;45.822;16.092;2022-12-13T02:25:03;13.75;;;6.82;;
66585;SDS011;53444;45.822;16.092;2022-12-13T02:27:58;12.07;;;6.88;;
66585;SDS011;53444;45.822;16.092;2022-12-13T02:30:39;7.97;;;4.93;;
66585;SDS011;53444;45.822;16.092;2022-12-13T02:33:15;14.48;;;6.28;;
66585;SDS011;53444;45.822;16.092;2022-12-13T02:35:51;18.57;;;6.33;;
66585;SDS011;53444;45.822;16.092;2022-12-13T02:38:27;13.30;;;6.07;;
66585;SDS011;53444;45.822;16.092;2022-12-13T02:41:00;10.90;;;4.93;;
66585;SDS011;53444;45.822;16.092;2022-12-13T02:43:34;14.82;;;5.78;;
66585;SDS011;53444;45.822;16.092;2022-12-13T02:46:06;10.82;;;6.57;;
66585;SDS011;53444;45.822;16.092;2022-12-13T02:48:36;12.83;;;5.23;;
66585;SDS011;53444;45.822;16.092;2022-12-13T02:51:05;11.55;;;6.68;;
66585;SDS011;53444;45.822;16.092;2022-12-13T02:53:35;12.50;;;6.05;;
66585;SDS011;53444;45.822;16.092;2022-12-13T02:56:04;9.73;;;5.47;;
66585;SDS011;53444;45.822;16.092;2022-12-13T02:58:32;16.27;;;5.85;;
66585;SDS011;53444;45.822;16.092;2022-12-13T03:01:04;8.20;;;5.03;;
66585;SDS011;53444;45.822;16.092;2022-12-13T03:03:45;13.80;;;7.22;;
66585;SDS011;53444;45.822;16.092;2022-12-13T03:06:20;11.88;;;6.40;;
66585;SDS011;53444;45.822;16.092;2022-12-13T03:08:59;10.63;;;6.00;;
66585;SDS011;53444;45.822;16.092;2022-12-13T03:11:42;10.88;;;6.32;;
66585;SDS011;53444;45.822;16.092;2022-12-13T03:14:33;15.03;;;5.17;;
66585;SDS011;53444;45.822;16.092;2022-12-13T03:17:05;8.68;;;4.35;;
66585;SDS011;53444;45.822;16.092;2022-12-13T03:19:34;8.40;;;3.80;;
66585;SDS011;53444;45.822;16.092;2022-12-13T03:22:02;9.20;;;5.30;;
66585;SDS011;53444;45.822;16.092;2022-12-13T03:24:31;9.10;;;4.47;;
66585;SDS011;53444;45.822;16.092;2022-12-13T03:26:57;10.07;;;4.63;;
66585;SDS011;53444;45.822;16.092;2022-12-13T03:29:24;8.60;;;4.75;;
66585;SDS011;53444;45.822;16.092;2022-12-13T03:31:51;12.57;;;5.53;;
66585;SDS011;53444;45.822;16.092;2022-12-13T03:34:19;13.25;;;4.07;;
66585;SDS011;53444;45.822;16.092;2022-12-13T03:36:46;10.93;;;4.45;;
66585;SDS011;53444;45.822;16.092;2022-12-13T03:39:13;8.30;;;4.27;;
66585;SDS011;53444;45.822;16.092;2022-12-13T03:41:39;5.47;;;3.53;;
66585;SDS011;53444;45.822;16.092;2022-12-13T03:44:06;9.07;;;4.25;;
66585;SDS011;53444;45.822;16.092;2022-12-13T03:46:33;5.68;;;3.35;;
66585;SDS011;53444;45.822;16.092;2022-12-13T03:49:00;8.38;;;3.97;;
66585;SDS011;53444;45.822;16.092;2022-12-13T03:51:28;9.93;;;4.40;;
66585;SDS011;53444;45.822;16.092;2022-12-13T03:53:54;8.45;;;3.83;;
66585;SDS011;53444;45.822;16.092;2022-12-13T03:56:21;10.13;;;5.35;;
66585;SDS011;53444;45.822;16.092;2022-12-13T03:58:47;10.68;;;5.07;;
66585;SDS011;53444;45.822;16.092;2022-12-13T04:01:15;11.90;;;6.72;;
66585;SDS011;53444;45.822;16.092;2022-12-13T04:03:43;11.93;;;6.50;;
66585;SDS011;53444;45.822;16.092;2022-12-13T04:06:11;8.75;;;4.40;;
66585;SDS011;53444;45.822;16.092;2022-12-13T04:08:40;16.58;;;6.07;;
66585;SDS011;53444;45.822;16.092;2022-12-13T04:11:07;6.97;;;4.43;;
66585;SDS011;53444;45.822;16.092;2022-12-13T04:13:51;10.98;;;5.25;;
66585;SDS011;53444;45.822;16.092;2022-12-13T04:16:19;18.50;;;5.70;;
66585;SDS011;53444;45.822;16.092;2022-12-13T04:18:45;13.52;;;5.32;;
66585;SDS011;53444;45.822;16.092;2022-12-13T04:21:12;13.60;;;6.13;;
66585;SDS011;53444;45.822;16.092;2022-12-13T04:23:40;7.65;;;4.47;;
66585;SDS011;53444;45.822;16.092;2022-12-13T04:26:07;10.20;;;5.70;;
66585;SDS011;53444;45.822;16.092;2022-12-13T04:28:34;9.85;;;5.45;;
66585;SDS011;53444;45.822;16.092;2022-12-13T04:31:00;7.57;;;4.65;;
66585;SDS011;53444;45.822;16.092;2022-12-13T04:33:27;10.00;;;4.15;;
66585;SDS011;53444;45.822;16.092;2022-12-13T04:35:56;11.30;;;4.38;;
66585;SDS011;53444;45.822;16.092;2022-12-13T04:38:23;9.80;;;5.27;;
66585;SDS011;53444;45.822;16.092;2022-12-13T04:40:51;14.05;;;5.25;;
66585;SDS011;53444;45.822;16.092;2022-12-13T04:43:17;14.40;;;5.05;;
66585;SDS011;53444;45.822;16.092;2022-12-13T04:45:44;7.40;;;4.22;;
66585;SDS011;53444;45.822;16.092;2022-12-13T04:48:11;5.95;;;3.33;;
66585;SDS011;53444;45.822;16.092;2022-12-13T04:50:37;6.10;;;3.57;;
66585;SDS011;53444;45.822;16.092;2022-12-13T04:53:04;5.10;;;3.35;;
66585;SDS011;53444;45.822;16.092;2022-12-13T04:55:30;7.07;;;2.53;;
66585;SDS011;53444;45.822;16.092;2022-12-13T04:57:58;7.65;;;3.45;;
66585;SDS011;53444;45.822;16.092;2022-12-13T05:00:25;5.03;;;3.28;;
66585;SDS011;53444;45.822;16.092;2022-12-13T05:02:51;6.67;;;3.23;;
66585;SDS011;53444;45.822;16.092;2022-12-13T05:05:18;6.72;;;4.25;;
66585;SDS011;53444;45.822;16.092;2022-12-13T05:07:47;6.75;;;3.50;;
66585;SDS011;53444;45.822;16.092;2022-12-13T05:10:21;5.45;;;3.80;;
66585;SDS011;53444;45.822;16.092;2022-12-13T05:12:48;11.05;;;3.65;;
66585;SDS011;53444;45.822;16.092;2022-12-13T05:15:19;9.53;;;4.47;;
66585;SDS011;53444;45.822;16.092;2022-12-13T05:17:50;7.22;;;3.60;;
66585;SDS011;53444;45.822;16.092;2022-12-13T05:20:17;7.40;;;3.45;;
66585;SDS011;53444;45.822;16.092;2022-12-13T05:22:43;9.88;;;3.92;;
66585;SDS011;53444;45.822;16.092;2022-12-13T05:25:10;5.22;;;3.33;;
66585;SDS011;53444;45.822;16.092;2022-12-13T05:27:36;7.73;;;4.23;;
66585;SDS011;53444;45.822;16.092;2022-12-13T05:30:03;5.88;;;3.75;;
66585;SDS011;53444;45.822;16.092;2022-12-13T05:32:32;9.45;;;5.07;;
66585;SDS011;53444;45.822;16.092;2022-12-13T05:35:00;8.48;;;4.53;;
66585;SDS011;53444;45.822;16.092;2022-12-13T05:37:27;11.30;;;6.55;;
66585;SDS011;53444;45.822;16.092;2022-12-13T05:39:54;9.37;;;5.00;;
66585;SDS011;53444;45.822;16.092;2022-12-13T05:42:20;16.83;;;5.60;;
66585;SDS011;53444;45.822;16.092;2022-12-13T05:44:47;9.93;;;5.80;;
66585;SDS011;53444;45.822;16.092;2022-12-13T05:47:13;13.13;;;5.88;;
66585;SDS011;53444;45.822;16.092;2022-12-13T05:49:41;8.55;;;5.68;;
66585;SDS011;53444;45.822;16.092;2022-12-13T05:52:14;16.93;;;6.67;;
66585;SDS011;53444;45.822;16.092;2022-12-13T05:54:41;9.60;;;5.72;;
66585;SDS011;53444;45.822;16.092;2022-12-13T05:57:08;11.93;;;6.45;;
66585;SDS011;53444;45.822;16.092;2022-12-13T05:59:35;16.95;;;7.57;;
66585;SDS011;53444;45.822;16.092;2022-12-13T06:02:01;14.95;;;8.25;;
66585;SDS011;53444;45.822;16.092;2022-12-13T06:04:28;20.23;;;6.93;;
66585;SDS011;53444;45.822;16.092;2022-12-13T06:06:56;15.40;;;7.72;;
66585;SDS011;53444;45.822;16.092;2022-12-13T06:09:23;12.10;;;6.95;;
66585;SDS011;53444;45.822;16.092;2022-12-13T06:11:50;18.15;;;7.30;;
66585;SDS011;53444;45.822;16.092;2022-12-13T06:14:16;19.42;;;7.97;;
66585;SDS011;53444;45.822;16.092;2022-12-13T06:16:43;16.90;;;8.83;;
66585;SDS011;53444;45.822;16.092;2022-12-13T06:19:10;15.27;;;7.25;;
66585;SDS011;53444;45.822;16.092;2022-12-13T06:21:36;13.07;;;7.50;;
66585;SDS011;53444;45.822;16.092;2022-12-13T06:24:05;15.38;;;7.45;;
66585;SDS011;53444;45.822;16.092;2022-12-13T06:26:32;17.92;;;9.55;;
66585;SDS011;53444;45.822;16.092;2022-12-13T06:28:59;21.27;;;9.77;;
66585;SDS011;53444;45.822;16.092;2022-12-13T06:31:25;20.10;;;8.65;;
66585;SDS011;53444;45.822;16.092;2022-12-13T06:33:52;19.60;;;10.55;;
66585;SDS011;53444;45.822;16.092;2022-12-13T06:36:19;19.80;;;11.57;;
66585;SDS011;53444;45.822;16.092;2022-12-13T06:38:46;18.45;;;11.05;;
66585;SDS011;53444;45.822;16.092;2022-12-13T06:41:14;16.60;;;8.37;;
66585;SDS011;53444;45.822;16.092;2022-12-13T06:43:42;17.17;;;8.27;;
66585;SDS011;53444;45.822;16.092;2022-12-13T06:46:09;14.38;;;9.05;;
66585;SDS011;53444;45.822;16.092;2022-12-13T06:48:36;16.70;;;8.82;;
66585;SDS011;53444;45.822;16.092;2022-12-13T06:51:05;15.73;;;8.25;;
66585;SDS011;53444;45.822;16.092;2022-12-13T06:53:33;18.00;;;8.37;;
66585;SDS011;53444;45.822;16.092;2022-12-13T06:56:02;21.27;;;9.20;;
66585;SDS011;53444;45.822;16.092;2022-12-13T06:58:31;12.35;;;8.18;;
66585;SDS011;53444;45.822;16.092;2022-12-13T07:01:03;16.55;;;9.75;;
66585;SDS011;53444;45.822;16.092;2022-12-13T07:03:32;21.88;;;9.63;;
66585;SDS011;53444;45.822;16.092;2022-12-13T07:06:02;19.47;;;8.47;;
66585;SDS011;53444;45.822;16.092;2022-12-13T07:08:30;19.67;;;9.40;;
66585;SDS011;53444;45.822;16.092;2022-12-13T07:10:57;16.15;;;8.40;;
66585;SDS011;53444;45.822;16.092;2022-12-13T07:13:25;25.50;;;12.35;;
66585;SDS011;53444;45.822;16.092;2022-12-13T07:15:53;18.85;;;9.57;;
66585;SDS011;53444;45.822;16.092;2022-12-13T07:18:20;23.77;;;10.30;;
66585;SDS011;53444;45.822;16.092;2022-12-13T07:20:47;21.65;;;7.88;;
66585;SDS011;53444;45.822;16.092;2022-12-13T07:23:14;14.52;;;7.65;;
66585;SDS011;53444;45.822;16.092;2022-12-13T07:25:57;12.45;;;7.07;;
66585;SDS011;53444;45.822;16.092;2022-12-13T07:28:26;14.77;;;8.68;;
66585;SDS011;53444;45.822;16.092;2022-12-13T07:30:54;15.43;;;7.03;;
66585;SDS011;53444;45.822;16.092;2022-12-13T07:33:21;15.20;;;6.68;;
66585;SDS011;53444;45.822;16.092;2022-12-13T07:35:50;13.73;;;7.10;;
66585;SDS011;53444;45.822;16.092;2022-12-13T07:38:25;17.55;;;8.35;;
66585;SDS011;53444;45.822;16.092;2022-12-13T07:40:54;19.20;;;8.48;;
66585;SDS011;53444;45.822;16.092;2022-12-13T07:43:21;14.83;;;8.13;;
66585;SDS011;53444;45.822;16.092;2022-12-13T07:45:48;13.95;;;7.95;;
66585;SDS011;53444;45.822;16.092;2022-12-13T07:48:16;15.77;;;8.68;;
66585;SDS011;53444;45.822;16.092;2022-12-13T07:50:43;16.08;;;8.68;;
66585;SDS011;53444;45.822;16.092;2022-12-13T07:53:09;16.52;;;8.10;;
66585;SDS011;53444;45.822;16.092;2022-12-13T07:55:36;17.07;;;8.53;;
66585;SDS011;53444;45.822;16.092;2022-12-13T07:58:04;15.35;;;7.53;;
66585;SDS011;53444;45.822;16.092;2022-12-13T08:00:31;15.20;;;8.65;;
66585;SDS011;53444;45.822;16.092;2022-12-13T08:02:59;24.55;;;12.85;;
66585;SDS011;53444;45.822;16.092;2022-12-13T08:05:27;28.50;;;13.10;;
66585;SDS011;53444;45.822;16.092;2022-12-13T08:07:54;21.53;;;12.37;;
66585;SDS011;53444;45.822;16.092;2022-12-13T08:10:20;25.23;;;11.75;;
66585;SDS011;53444;45.822;16.092;2022-12-13T08:12:47;23.55;;;11.75;;
66585;SDS011;53444;45.822;16.092;2022-12-13T08:15:14;19.45;;;10.55;;
66585;SDS011;53444;45.822;16.092;2022-12-13T08:17:41;20.40;;;9.93;;
66585;SDS011;53444;45.822;16.092;2022-12-13T08:20:08;18.97;;;10.10;;
66585;SDS011;53444;45.822;16.092;2022-12-13T08:22:37;13.52;;;7.97;;
66585;SDS011;53444;45.822;16.092;2022-12-13T08:25:04;16.95;;;9.57;;
66585;SDS011;53444;45.822;16.092;2022-12-13T08:27:31;19.90;;;10.48;;
66585;SDS011;53444;45.822;16.092;2022-12-13T08:29:58;25.50;;;13.68;;
66585;SDS011;53444;45.822;16.092;2022-12-13T08:32:25;22.37;;;12.33;;
66585;SDS011;53444;45.822;16.092;2022-12-13T08:34:52;22.23;;;9.88;;
66585;SDS011;53444;45.822;16.092;2022-12-13T08:37:18;22.60;;;9.77;;
66585;SDS011;53444;45.822;16.092;2022-12-13T08:39:46;20.55;;;10.18;;
66585;SDS011;53444;45.822;16.092;2022-12-13T08:42:13;22.90;;;11.93;;
66585;SDS011;53444;45.822;16.092;2022-12-13T08:44:42;23.67;;;12.53;;
66585;SDS011;53444;45.822;16.092;2022-12-13T08:47:08;30.05;;;11.57;;
66585;SDS011;53444;45.822;16.092;2022-12-13T08:49:35;25.23;;;13.38;;
66585;SDS011;53444;45.822;16.092;2022-12-13T08:52:02;31.77;;;14.10;;
66585;SDS011;53444;45.822;16.092;2022-12-13T08:54:31;26.23;;;13.45;;
66585;SDS011;53444;45.822;16.092;2022-12-13T08:56:59;24.67;;;11.57;;
66585;SDS011;53444;45.822;16.092;2022-12-13T08:59:26;32.33;;;14.60;;
66585;SDS011;53444;45.822;16.092;2022-12-13T09:01:52;36.78;;;15.85;;
66585;SDS011;53444;45.822;16.092;2022-12-13T09:04:19;34.92;;;13.18;;
66585;SDS011;53444;45.822;16.092;2022-12-13T09:06:46;27.73;;;14.23;;
66585;SDS011;53444;45.822;16.092;2022-12-13T09:09:12;25.97;;;15.40;;
66585;SDS011;53444;45.822;16.092;2022-12-13T09:11:39;29.67;;;14.15;;
66585;SDS011;53444;45.822;16.092;2022-12-13T09:14:07;28.73;;;12.98;;
66585;SDS011;53444;45.822;16.092;2022-12-13T09:16:34;36.15;;;14.95;;
66585;SDS011;53444;45.822;16.092;2022-12-13T09:19:01;26.80;;;13.13;;
66585;SDS011;53444;45.822;16.092;2022-12-13T09:21:29;33.47;;;15.23;;
66585;SDS011;53444;45.822;16.092;2022-12-13T09:23:56;27.52;;;13.80;;
66585;SDS011;53444;45.822;16.092;2022-12-13T09:26:22;23.73;;;12.48;;
66585;SDS011;53444;45.822;16.092;2022-12-13T09:28:49;39.65;;;19.65;;
66585;SDS011;53444;45.822;16.092;2022-12-13T09:31:18;21.17;;;10.52;;
66585;SDS011;53444;45.822;16.092;2022-12-13T09:33:45;16.73;;;9.17;;
66585;SDS011;53444;45.822;16.092;2022-12-13T09:36:12;30.80;;;13.80;;
66585;SDS011;53444;45.822;16.092;2022-12-13T09:38:40;32.60;;;13.48;;
66585;SDS011;53444;45.822;16.092;2022-12-13T09:41:11;26.73;;;13.70;;
66585;SDS011;53444;45.822;16.092;2022-12-13T09:43:43;34.70;;;15.52;;
66585;SDS011;53444;45.822;16.092;2022-12-13T09:46:15;33.53;;;14.40;;
66585;SDS011;53444;45.822;16.092;2022-12-13T09:48:53;42.05;;;16.25;;
66585;SDS011;53444;45.822;16.092;2022-12-13T09:51:21;45.22;;;21.23;;
66585;SDS011;53444;45.822;16.092;2022-12-13T09:53:49;44.60;;;21.30;;
66585;SDS011;53444;45.822;16.092;2022-12-13T09:56:24;50.60;;;20.40;;
66585;SDS011;53444;45.822;16.092;2022-12-13T09:58:52;41.73;;;20.63;;
66585;SDS011;53444;45.822;16.092;2022-12-13T10:01:22;36.20;;;16.60;;
66585;SDS011;53444;45.822;16.092;2022-12-13T10:03:49;51.35;;;17.55;;
66585;SDS011;53444;45.822;16.092;2022-12-13T10:06:18;48.17;;;19.95;;
66585;SDS011;53444;45.822;16.092;2022-12-13T10:08:47;47.28;;;19.85;;
66585;SDS011;53444;45.822;16.092;2022-12-13T10:11:16;46.50;;;19.23;;
66585;SDS011;53444;45.822;16.092;2022-12-13T10:13:45;44.83;;;20.85;;
66585;SDS011;53444;45.822;16.092;2022-12-13T10:16:16;37.63;;;18.80;;
66585;SDS011;53444;45.822;16.092;2022-12-13T10:18:49;40.88;;;17.73;;
66585;SDS011;53444;45.822;16.092;2022-12-13T10:21:18;47.20;;;21.10;;
66585;SDS011;53444;45.822;16.092;2022-12-13T10:23:47;34.77;;;17.20;;
66585;SDS011;53444;45.822;16.092;2022-12-13T10:26:14;47.10;;;19.10;;
66585;SDS011;53444;45.822;16.092;2022-12-13T10:28:40;44.88;;;20.55;;
66585;SDS011;53444;45.822;16.092;2022-12-13T10:31:07;43.75;;;18.85;;
66585;SDS011;53444;45.822;16.092;2022-12-13T10:33:47;61.15;;;22.45;;
66585;SDS011;53444;45.822;16.092;2022-12-13T10:36:30;48.00;;;19.57;;
66585;SDS011;53444;45.822;16.092;2022-12-13T10:38:59;46.63;;;22.60;;
66585;SDS011;53444;45.822;16.092;2022-12-13T10:41:29;63.60;;;23.85;;
66585;SDS011;53444;45.822;16.092;2022-12-13T10:46:58;43.15;;;20.48;;
66585;SDS011;53444;45.822;16.092;2022-12-13T10:49:36;43.40;;;19.30;;
66585;SDS011;53444;45.822;16.092;2022-12-13T10:52:19;51.97;;;21.52;;
66585;SDS011;53444;45.822;16.092;2022-12-13T10:54:50;50.42;;;22.42;;
66585;SDS011;53444;45.822;16.092;2022-12-13T10:57:19;51.55;;;22.00;;
66585;SDS011;53444;45.822;16.092;2022-12-13T10:59:49;40.50;;;20.63;;
66585;SDS011;53444;45.822;16.092;2022-12-13T11:02:27;38.60;;;20.43;;
66585;SDS011;53444;45.822;16.092;2022-12-13T11:04:58;46.92;;;16.10;;
66585;SDS011;53444;45.822;16.092;2022-12-13T11:07:41;42.05;;;20.70;;
66585;SDS011;53444;45.822;16.092;2022-12-13T11:10:14;62.90;;;25.95;;
66585;SDS011;53444;45.822;16.092;2022-12-13T11:12:48;57.63;;;22.98;;
66585;SDS011;53444;45.822;16.092;2022-12-13T11:15:23;73.03;;;22.03;;
66585;SDS011;53444;45.822;16.092;2022-12-13T11:17:54;50.90;;;20.17;;
66585;SDS011;53444;45.822;16.092;2022-12-13T11:20:25;60.33;;;23.13;;
66585;SDS011;53444;45.822;16.092;2022-12-13T11:22:58;49.40;;;23.17;;
66585;SDS011;53444;45.822;16.092;2022-12-13T11:25:28;45.08;;;22.60;;
66585;SDS011;53444;45.822;16.092;2022-12-13T11:28:02;54.40;;;21.90;;
66585;SDS011;53444;45.822;16.092;2022-12-13T11:30:40;52.17;;;23.95;;
66585;SDS011;53444;45.822;16.092;2022-12-13T11:33:20;44.40;;;20.17;;
66585;SDS011;53444;45.822;16.092;2022-12-13T11:36:00;51.05;;;22.52;;
66585;SDS011;53444;45.822;16.092;2022-12-13T11:38:35;45.97;;;21.60;;
66585;SDS011;53444;45.822;16.092;2022-12-13T11:41:11;48.00;;;22.43;;
66585;SDS011;53444;45.822;16.092;2022-12-13T11:43:43;48.72;;;22.55;;
66585;SDS011;53444;45.822;16.092;2022-12-13T11:46:15;46.67;;;22.85;;
66585;SDS011;53444;45.822;16.092;2022-12-13T11:48:46;58.72;;;23.52;;
66585;SDS011;53444;45.822;16.092;2022-12-13T11:51:20;50.75;;;24.55;;
66585;SDS011;53444;45.822;16.092;2022-12-13T11:53:53;51.67;;;22.87;;
66585;SDS011;53444;45.822;16.092;2022-12-13T11:56:25;49.05;;;24.20;;
66585;SDS011;53444;45.822;16.092;2022-12-13T11:58:59;55.20;;;23.83;;
66585;SDS011;53444;45.822;16.092;2022-12-13T12:01:33;55.20;;;26.02;;
66585;SDS011;53444;45.822;16.092;2022-12-13T12:04:06;54.00;;;25.67;;
66585;SDS011;53444;45.822;16.092;2022-12-13T12:06:43;53.70;;;25.03;;
66585;SDS011;53444;45.822;16.092;2022-12-13T12:09:16;38.33;;;20.45;;
66585;SDS011;53444;45.822;16.092;2022-12-13T12:11:47;43.63;;;21.73;;
66585;SDS011;53444;45.822;16.092;2022-12-13T12:14:20;45.67;;;22.55;;
66585;SDS011;53444;45.822;16.092;2022-12-13T12:16:50;52.42;;;25.00;;
66585;SDS011;53444;45.822;16.092;2022-12-13T12:19:19;60.47;;;29.50;;
66585;SDS011;53444;45.822;16.092;2022-12-13T12:21:58;59.83;;;25.65;;
66585;SDS011;53444;45.822;16.092;2022-12-13T12:24:35;60.60;;;28.15;;
66585;SDS011;53444;45.822;16.092;2022-12-13T12:27:15;75.47;;;31.15;;
66585;SDS011;53444;45.822;16.092;2022-12-13T12:30:04;63.28;;;26.83;;
66585;SDS011;53444;45.822;16.092;2022-12-13T12:32:37;53.07;;;23.03;;
66585;SDS011;53444;45.822;16.092;2022-12-13T12:35:16;62.35;;;24.90;;
66585;SDS011;53444;45.822;16.092;2022-12-13T12:37:53;60.83;;;25.33;;
66585;SDS011;53444;45.822;16.092;2022-12-13T12:40:31;53.22;;;24.33;;
66585;SDS011;53444;45.822;16.092;2022-12-13T12:43:11;59.60;;;26.55;;
66585;SDS011;53444;45.822;16.092;2022-12-13T12:45:53;65.87;;;24.23;;
66585;SDS011;53444;45.822;16.092;2022-12-13T12:48:41;42.42;;;20.73;;
66585;SDS011;53444;45.822;16.092;2022-12-13T12:51:26;50.30;;;22.23;;
66585;SDS011;53444;45.822;16.092;2022-12-13T12:54:03;50.85;;;23.25;;
66585;SDS011;53444;45.822;16.092;2022-12-13T12:56:41;47.90;;;21.73;;
66585;SDS011;53444;45.822;16.092;2022-12-13T12:59:16;40.60;;;20.10;;
66585;SDS011;53444;45.822;16.092;2022-12-13T13:01:52;48.95;;;23.70;;
66585;SDS011;53444;45.822;16.092;2022-12-13T13:04:26;45.45;;;20.85;;
66585;SDS011;53444;45.822;16.092;2022-12-13T13:06:58;41.80;;;19.35;;
66585;SDS011;53444;45.822;16.092;2022-12-13T13:09:32;51.75;;;23.45;;
66585;SDS011;53444;45.822;16.092;2022-12-13T13:12:01;51.27;;;22.80;;
66585;SDS011;53444;45.822;16.092;2022-12-13T13:14:29;52.97;;;20.55;;
66585;SDS011;53444;45.822;16.092;2022-12-13T13:16:58;52.97;;;23.50;;
66585;SDS011;53444;45.822;16.092;2022-12-13T13:19:39;42.78;;;21.20;;
66585;SDS011;53444;45.822;16.092;2022-12-13T13:22:13;48.97;;;22.13;;
66585;SDS011;53444;45.822;16.092;2022-12-13T13:24:59;46.80;;;21.77;;
66585;SDS011;53444;45.822;16.092;2022-12-13T13:27:44;56.15;;;22.55;;
66585;SDS011;53444;45.822;16.092;2022-12-13T13:30:14;53.78;;;24.85;;
66585;SDS011;53444;45.822;16.092;2022-12-13T13:32:43;51.75;;;24.45;;
66585;SDS011;53444;45.822;16.092;2022-12-13T13:38:24;52.27;;;22.60;;
66585;SDS011;53444;45.822;16.092;2022-12-13T13:40:55;48.83;;;22.95;;
66585;SDS011;53444;45.822;16.092;2022-12-13T13:43:28;51.85;;;23.95;;
66585;SDS011;53444;45.822;16.092;2022-12-13T13:45:57;57.60;;;26.63;;
66585;SDS011;53444;45.822;16.092;2022-12-13T13:48:31;66.38;;;28.13;;
66585;SDS011;53444;45.822;16.092;2022-12-13T13:51:20;52.47;;;24.37;;
66585;SDS011;53444;45.822;16.092;2022-12-13T13:54:12;49.33;;;24.70;;
66585;SDS011;53444;45.822;16.092;2022-12-13T13:57:11;48.97;;;21.92;;
66585;SDS011;53444;45.822;16.092;2022-12-13T13:59:59;48.63;;;21.27;;
66585;SDS011;53444;45.822;16.092;2022-12-13T14:09:01;47.92;;;20.98;;
66585;SDS011;53444;45.822;16.092;2022-12-13T14:11:59;50.40;;;21.67;;
66585;SDS011;53444;45.822;16.092;2022-12-13T14:14:49;42.50;;;20.15;;
66585;SDS011;53444;45.822;16.092;2022-12-13T14:21:01;39.53;;;18.57;;
66585;SDS011;53444;45.822;16.092;2022-12-13T14:23:39;38.53;;;18.52;;
66585;SDS011;53444;45.822;16.092;2022-12-13T14:26:25;50.33;;;21.75;;
66585;SDS011;53444;45.822;16.092;2022-12-13T14:29:08;37.75;;;19.88;;
66585;SDS011;53444;45.822;16.092;2022-12-13T14:31:39;39.65;;;18.42;;
66585;SDS011;53444;45.822;16.092;2022-12-13T14:34:13;52.23;;;19.57;;
66585;SDS011;53444;45.822;16.092;2022-12-13T14:36:47;33.95;;;17.27;;
66585;SDS011;53444;45.822;16.092;2022-12-13T14:39:20;38.75;;;17.90;;
66585;SDS011;53444;45.822;16.092;2022-12-13T14:41:48;39.58;;;19.50;;
66585;SDS011;53444;45.822;16.092;2022-12-13T14:44:19;37.10;;;18.92;;
66585;SDS011;53444;45.822;16.092;2022-12-13T14:46:49;37.60;;;17.60;;
66585;SDS011;53444;45.822;16.092;2022-12-13T14:49:18;37.97;;;16.58;;
66585;SDS011;53444;45.822;16.092;2022-12-13T14:51:45;36.55;;;15.95;;
66585;SDS011;53444;45.822;16.092;2022-12-13T14:54:18;42.67;;;18.25;;
66585;SDS011;53444;45.822;16.092;2022-12-13T14:56:54;43.47;;;19.60;;